sensor_id;sensor_type;location;lat;lon;timestamp;P1;durP1;ratioP1;P2;durP2;ratioP2
50102;SDS011;35993;52.604;10.078;2023-04-01T00:01:57;4.75;;;1.40;;
50102;SDS011;35993;52.604;10.078;2023-04-01T00:04:22;3.50;;;1.23;;
50102;SDS011;35993;52.604;10.078;2023-04-01T00:06:48;3.22;;;1.20;;
50102;SDS011;35993;52.604;10.078;2023-04-01T00:09:13;3.45;;;1.20;;
50102;SDS011;35993;52.604;10.078;2023-04-01T00:11:39;4.55;;;1.30;;
50102;SDS011;35993;52.604;10.078;2023-04-01T00:14:06;3.28;;;1.33;;
50102;SDS011;35993;52.604;10.078;2023-04-01T00:16:32;4.47;;;1.50;;
50102;SDS011;35993;52.604;10.078;2023-04-01T00:18:58;4.78;;;1.20;;
50102;SDS011;35993;52.604;10.078;2023-04-01T00:21:23;3.97;;;1.40;;
50102;SDS011;35993;52.604;10.078;2023-04-01T00:23:49;4.40;;;1.33;;
50102;SDS011;35993;52.604;10.078;2023-04-01T00:26:15;3.08;;;1.33;;
50102;SDS011;35993;52.604;10.078;2023-04-01T00:28:45;4.35;;;1.35;;
50102;SDS011;35993;52.604;10.078;2023-04-01T00:31:12;2.00;;;1.25;;
50102;SDS011;35993;52.604;10.078;2023-04-01T00:33:38;3.90;;;1.35;;
50102;SDS011;35993;52.604;10.078;2023-04-01T00:36:13;2.17;;;0.93;;
50102;SDS011;35993;52.604;10.078;2023-04-01T00:38:40;4.60;;;1.30;;
50102;SDS011;35993;52.604;10.078;2023-04-01T00:41:08;5.05;;;1.33;;
50102;SDS011;35993;52.604;10.078;2023-04-01T00:43:39;5.15;;;1.70;;
50102;SDS011;35993;52.604;10.078;2023-04-01T00:46:05;2.55;;;1.33;;
50102;SDS011;35993;52.604;10.078;2023-04-01T00:48:33;5.82;;;1.70;;
50102;SDS011;35993;52.604;10.078;2023-04-01T00:51:02;4.20;;;1.70;;
50102;SDS011;35993;52.604;10.078;2023-04-01T00:53:33;5.32;;;1.98;;
50102;SDS011;35993;52.604;10.078;2023-04-01T00:56:04;4.85;;;1.85;;
50102;SDS011;35993;52.604;10.078;2023-04-01T00:58:36;3.03;;;1.70;;
50102;SDS011;35993;52.604;10.078;2023-04-01T01:01:05;4.32;;;1.90;;
50102;SDS011;35993;52.604;10.078;2023-04-01T01:03:31;4.13;;;1.23;;
50102;SDS011;35993;52.604;10.078;2023-04-01T01:06:10;3.08;;;1.50;;
50102;SDS011;35993;52.604;10.078;2023-04-01T01:11:13;2.38;;;1.50;;
50102;SDS011;35993;52.604;10.078;2023-04-01T01:17:03;6.45;;;1.60;;
50102;SDS011;35993;52.604;10.078;2023-04-01T01:36:42;5.32;;;1.50;;
50102;SDS011;35993;52.604;10.078;2023-04-01T01:39:12;4.03;;;1.55;;
50102;SDS011;35993;52.604;10.078;2023-04-01T01:41:39;3.38;;;1.27;;
50102;SDS011;35993;52.604;10.078;2023-04-01T01:44:08;3.28;;;1.13;;
50102;SDS011;35993;52.604;10.078;2023-04-01T01:46:36;4.15;;;1.25;;
50102;SDS011;35993;52.604;10.078;2023-04-01T01:49:04;3.38;;;1.40;;
50102;SDS011;35993;52.604;10.078;2023-04-01T01:51:32;3.45;;;1.60;;
50102;SDS011;35993;52.604;10.078;2023-04-01T01:54:01;5.93;;;1.52;;
50102;SDS011;35993;52.604;10.078;2023-04-01T01:56:27;4.03;;;1.30;;
50102;SDS011;35993;52.604;10.078;2023-04-01T01:59:05;4.35;;;1.35;;
50102;SDS011;35993;52.604;10.078;2023-04-01T02:01:35;5.63;;;1.25;;
50102;SDS011;35993;52.604;10.078;2023-04-01T02:04:09;3.08;;;1.17;;
50102;SDS011;35993;52.604;10.078;2023-04-01T02:06:38;5.05;;;1.38;;
50102;SDS011;35993;52.604;10.078;2023-04-01T02:09:07;4.50;;;1.40;;
50102;SDS011;35993;52.604;10.078;2023-04-01T02:17:10;6.43;;;1.35;;
50102;SDS011;35993;52.604;10.078;2023-04-01T02:19:46;3.47;;;1.23;;
50102;SDS011;35993;52.604;10.078;2023-04-01T02:22:17;3.08;;;1.30;;
50102;SDS011;35993;52.604;10.078;2023-04-01T02:24:45;3.65;;;1.67;;
50102;SDS011;35993;52.604;10.078;2023-04-01T02:27:12;3.63;;;1.33;;
50102;SDS011;35993;52.604;10.078;2023-04-01T02:29:38;3.15;;;1.10;;
50102;SDS011;35993;52.604;10.078;2023-04-01T02:32:07;6.00;;;1.35;;
50102;SDS011;35993;52.604;10.078;2023-04-01T02:34:34;3.20;;;1.20;;
50102;SDS011;35993;52.604;10.078;2023-04-01T02:37:00;4.75;;;1.65;;
50102;SDS011;35993;52.604;10.078;2023-04-01T02:39:25;4.28;;;1.33;;
50102;SDS011;35993;52.604;10.078;2023-04-01T02:41:52;4.97;;;1.20;;
50102;SDS011;35993;52.604;10.078;2023-04-01T02:44:17;5.00;;;1.30;;
50102;SDS011;35993;52.604;10.078;2023-04-01T02:46:43;6.05;;;1.30;;
50102;SDS011;35993;52.604;10.078;2023-04-01T02:49:09;2.67;;;1.40;;
50102;SDS011;35993;52.604;10.078;2023-04-01T02:51:35;4.53;;;1.27;;
50102;SDS011;35993;52.604;10.078;2023-04-01T02:54:00;4.45;;;1.23;;
50102;SDS011;35993;52.604;10.078;2023-04-01T02:56:27;6.45;;;1.25;;
50102;SDS011;35993;52.604;10.078;2023-04-01T02:58:53;4.80;;;1.30;;
50102;SDS011;35993;52.604;10.078;2023-04-01T03:01:19;3.63;;;1.15;;
50102;SDS011;35993;52.604;10.078;2023-04-01T03:03:45;3.22;;;1.23;;
50102;SDS011;35993;52.604;10.078;2023-04-01T03:06:12;4.70;;;1.13;;
50102;SDS011;35993;52.604;10.078;2023-04-01T03:08:38;3.05;;;1.20;;
50102;SDS011;35993;52.604;10.078;2023-04-01T03:11:04;5.70;;;1.30;;
50102;SDS011;35993;52.604;10.078;2023-04-01T03:13:33;1.85;;;0.93;;
50102;SDS011;35993;52.604;10.078;2023-04-01T03:16:00;2.90;;;1.00;;
50102;SDS011;35993;52.604;10.078;2023-04-01T03:18:25;3.40;;;1.30;;
50102;SDS011;35993;52.604;10.078;2023-04-01T03:20:51;4.75;;;1.13;;
50102;SDS011;35993;52.604;10.078;2023-04-01T03:23:17;3.47;;;0.85;;
50102;SDS011;35993;52.604;10.078;2023-04-01T03:25:44;3.08;;;1.10;;
50102;SDS011;35993;52.604;10.078;2023-04-01T03:28:10;3.10;;;0.98;;
50102;SDS011;35993;52.604;10.078;2023-04-01T03:30:37;2.42;;;0.68;;
50102;SDS011;35993;52.604;10.078;2023-04-01T03:33:03;2.30;;;0.95;;
50102;SDS011;35993;52.604;10.078;2023-04-01T03:35:30;2.75;;;1.00;;
50102;SDS011;35993;52.604;10.078;2023-04-01T03:37:55;3.20;;;1.20;;
50102;SDS011;35993;52.604;10.078;2023-04-01T03:40:21;2.53;;;0.90;;
50102;SDS011;35993;52.604;10.078;2023-04-01T03:42:47;1.42;;;0.80;;
50102;SDS011;35993;52.604;10.078;2023-04-01T03:45:13;1.92;;;0.80;;
50102;SDS011;35993;52.604;10.078;2023-04-01T03:47:39;4.30;;;0.98;;
50102;SDS011;35993;52.604;10.078;2023-04-01T03:50:05;1.48;;;0.90;;
50102;SDS011;35993;52.604;10.078;2023-04-01T03:52:32;3.83;;;1.00;;
50102;SDS011;35993;52.604;10.078;2023-04-01T03:54:58;3.92;;;1.30;;
50102;SDS011;35993;52.604;10.078;2023-04-01T03:57:24;1.50;;;1.00;;
50102;SDS011;35993;52.604;10.078;2023-04-01T03:59:51;2.33;;;1.08;;
50102;SDS011;35993;52.604;10.078;2023-04-01T04:02:16;2.45;;;1.13;;
50102;SDS011;35993;52.604;10.078;2023-04-01T04:04:42;2.33;;;0.82;;
50102;SDS011;35993;52.604;10.078;2023-04-01T04:07:08;2.25;;;0.90;;
50102;SDS011;35993;52.604;10.078;2023-04-01T04:09:53;2.95;;;1.10;;
50102;SDS011;35993;52.604;10.078;2023-04-01T04:12:19;2.47;;;1.00;;
50102;SDS011;35993;52.604;10.078;2023-04-01T04:14:44;3.08;;;1.05;;
50102;SDS011;35993;52.604;10.078;2023-04-01T04:17:10;2.65;;;1.20;;
50102;SDS011;35993;52.604;10.078;2023-04-01T04:19:42;2.95;;;0.88;;
50102;SDS011;35993;52.604;10.078;2023-04-01T04:22:08;3.00;;;0.95;;
50102;SDS011;35993;52.604;10.078;2023-04-01T04:24:34;4.78;;;1.10;;
50102;SDS011;35993;52.604;10.078;2023-04-01T04:27:06;1.88;;;1.10;;
50102;SDS011;35993;52.604;10.078;2023-04-01T04:29:33;2.42;;;0.82;;
50102;SDS011;35993;52.604;10.078;2023-04-01T04:31:59;4.45;;;1.00;;
50102;SDS011;35993;52.604;10.078;2023-04-01T04:34:26;1.20;;;0.85;;
50102;SDS011;35993;52.604;10.078;2023-04-01T04:36:51;1.48;;;0.60;;
50102;SDS011;35993;52.604;10.078;2023-04-01T04:39:18;2.17;;;0.90;;
50102;SDS011;35993;52.604;10.078;2023-04-01T04:41:43;2.38;;;1.00;;
50102;SDS011;35993;52.604;10.078;2023-04-01T04:44:09;5.28;;;0.95;;
50102;SDS011;35993;52.604;10.078;2023-04-01T04:46:35;2.40;;;1.10;;
50102;SDS011;35993;52.604;10.078;2023-04-01T04:49:11;1.70;;;0.82;;
50102;SDS011;35993;52.604;10.078;2023-04-01T04:51:37;2.65;;;0.95;;
50102;SDS011;35993;52.604;10.078;2023-04-01T04:54:03;2.83;;;1.08;;
50102;SDS011;35993;52.604;10.078;2023-04-01T04:56:43;3.28;;;1.25;;
50102;SDS011;35993;52.604;10.078;2023-04-01T04:59:09;3.90;;;1.08;;
50102;SDS011;35993;52.604;10.078;2023-04-01T05:01:44;3.22;;;1.40;;
50102;SDS011;35993;52.604;10.078;2023-04-01T05:04:10;3.28;;;1.23;;
50102;SDS011;35993;52.604;10.078;2023-04-01T05:06:35;5.88;;;1.67;;
50102;SDS011;35993;52.604;10.078;2023-04-01T05:09:01;3.15;;;1.20;;
50102;SDS011;35993;52.604;10.078;2023-04-01T05:11:27;3.88;;;1.00;;
50102;SDS011;35993;52.604;10.078;2023-04-01T05:13:54;5.20;;;1.20;;
50102;SDS011;35993;52.604;10.078;2023-04-01T05:16:20;3.00;;;1.40;;
50102;SDS011;35993;52.604;10.078;2023-04-01T05:18:46;3.33;;;1.10;;
50102;SDS011;35993;52.604;10.078;2023-04-01T05:21:12;5.10;;;1.50;;
50102;SDS011;35993;52.604;10.078;2023-04-01T05:23:39;3.53;;;1.08;;
50102;SDS011;35993;52.604;10.078;2023-04-01T05:26:05;3.50;;;1.27;;
50102;SDS011;35993;52.604;10.078;2023-04-01T05:28:33;4.03;;;1.38;;
50102;SDS011;35993;52.604;10.078;2023-04-01T05:30:59;4.00;;;1.20;;
50102;SDS011;35993;52.604;10.078;2023-04-01T05:33:30;1.77;;;1.03;;
50102;SDS011;35993;52.604;10.078;2023-04-01T05:35:56;4.85;;;1.40;;
50102;SDS011;35993;52.604;10.078;2023-04-01T05:38:30;3.65;;;1.38;;
50102;SDS011;35993;52.604;10.078;2023-04-01T05:41:00;3.67;;;1.52;;
50102;SDS011;35993;52.604;10.078;2023-04-01T05:43:28;4.55;;;1.40;;
50102;SDS011;35993;52.604;10.078;2023-04-01T05:45:56;4.25;;;1.58;;
50102;SDS011;35993;52.604;10.078;2023-04-01T05:48:36;3.10;;;1.63;;
50102;SDS011;35993;52.604;10.078;2023-04-01T05:51:02;4.18;;;1.65;;
50102;SDS011;35993;52.604;10.078;2023-04-01T05:53:28;4.68;;;1.52;;
50102;SDS011;35993;52.604;10.078;2023-04-01T05:55:54;4.30;;;1.58;;
50102;SDS011;35993;52.604;10.078;2023-04-01T05:58:19;3.80;;;1.70;;
50102;SDS011;35993;52.604;10.078;2023-04-01T06:00:46;6.15;;;1.80;;
50102;SDS011;35993;52.604;10.078;2023-04-01T06:03:12;6.35;;;1.80;;
50102;SDS011;35993;52.604;10.078;2023-04-01T06:05:40;3.95;;;1.50;;
50102;SDS011;35993;52.604;10.078;2023-04-01T06:08:11;4.50;;;1.70;;
50102;SDS011;35993;52.604;10.078;2023-04-01T06:10:42;4.43;;;1.83;;
50102;SDS011;35993;52.604;10.078;2023-04-01T06:16:36;3.08;;;1.60;;
50102;SDS011;35993;52.604;10.078;2023-04-01T06:30:29;3.80;;;1.48;;
50102;SDS011;35993;52.604;10.078;2023-04-01T06:46:36;4.07;;;1.40;;
50102;SDS011;35993;52.604;10.078;2023-04-01T06:56:29;3.10;;;1.38;;
50102;SDS011;35993;52.604;10.078;2023-04-01T06:59:02;6.13;;;1.60;;
50102;SDS011;35993;52.604;10.078;2023-04-01T07:01:39;4.45;;;1.50;;
50102;SDS011;35993;52.604;10.078;2023-04-01T07:04:15;3.65;;;1.48;;
50102;SDS011;35993;52.604;10.078;2023-04-01T07:06:47;5.40;;;1.35;;
50102;SDS011;35993;52.604;10.078;2023-04-01T07:09:32;6.30;;;1.73;;
50102;SDS011;35993;52.604;10.078;2023-04-01T07:15:21;4.53;;;1.50;;
50102;SDS011;35993;52.604;10.078;2023-04-01T07:21:02;4.50;;;1.60;;
50102;SDS011;35993;52.604;10.078;2023-04-01T07:23:31;4.38;;;1.30;;
50102;SDS011;35993;52.604;10.078;2023-04-01T07:26:27;5.43;;;1.40;;
50102;SDS011;35993;52.604;10.078;2023-04-01T07:29:08;3.53;;;1.98;;
50102;SDS011;35993;52.604;10.078;2023-04-01T07:34:12;5.40;;;1.65;;
50102;SDS011;35993;52.604;10.078;2023-04-01T07:36:50;3.03;;;1.23;;
50102;SDS011;35993;52.604;10.078;2023-04-01T07:42:47;2.97;;;1.30;;
50102;SDS011;35993;52.604;10.078;2023-04-01T07:45:37;3.70;;;1.25;;
50102;SDS011;35993;52.604;10.078;2023-04-01T07:53:36;4.35;;;1.45;;
50102;SDS011;35993;52.604;10.078;2023-04-01T07:59:10;4.60;;;1.40;;
50102;SDS011;35993;52.604;10.078;2023-04-01T08:10:18;3.22;;;1.40;;
50102;SDS011;35993;52.604;10.078;2023-04-01T08:22:01;4.63;;;1.33;;
50102;SDS011;35993;52.604;10.078;2023-04-01T08:24:45;3.90;;;1.10;;
50102;SDS011;35993;52.604;10.078;2023-04-01T08:27:21;2.65;;;1.20;;
50102;SDS011;35993;52.604;10.078;2023-04-01T08:29:55;5.10;;;1.50;;
50102;SDS011;35993;52.604;10.078;2023-04-01T08:32:43;2.25;;;1.00;;
50102;SDS011;35993;52.604;10.078;2023-04-01T08:37:53;3.30;;;1.10;;
50102;SDS011;35993;52.604;10.078;2023-04-01T08:40:32;1.50;;;0.93;;
50102;SDS011;35993;52.604;10.078;2023-04-01T08:56:42;3.35;;;0.90;;
50102;SDS011;35993;52.604;10.078;2023-04-01T09:28:59;2.78;;;0.80;;
50102;SDS011;35993;52.604;10.078;2023-04-01T09:31:42;1.98;;;0.98;;
50102;SDS011;35993;52.604;10.078;2023-04-01T09:43:22;2.90;;;0.75;;
50102;SDS011;35993;52.604;10.078;2023-04-01T09:46:11;2.50;;;0.60;;
50102;SDS011;35993;52.604;10.078;2023-04-01T09:48:46;1.35;;;0.55;;
50102;SDS011;35993;52.604;10.078;2023-04-01T09:54:13;1.85;;;0.50;;
50102;SDS011;35993;52.604;10.078;2023-04-01T09:59:47;1.08;;;0.50;;
50102;SDS011;35993;52.604;10.078;2023-04-01T10:11:33;0.82;;;0.35;;
50102;SDS011;35993;52.604;10.078;2023-04-01T10:46:45;1.45;;;0.70;;
50102;SDS011;35993;52.604;10.078;2023-04-01T11:05:45;1.20;;;0.70;;
50102;SDS011;35993;52.604;10.078;2023-04-01T11:18:55;1.42;;;0.82;;
50102;SDS011;35993;52.604;10.078;2023-04-01T11:24:25;2.38;;;0.90;;
50102;SDS011;35993;52.604;10.078;2023-04-01T11:29:58;2.28;;;1.23;;
50102;SDS011;35993;52.604;10.078;2023-04-01T11:40:58;2.45;;;0.90;;
50102;SDS011;35993;52.604;10.078;2023-04-01T11:44:17;1.73;;;0.90;;
50102;SDS011;35993;52.604;10.078;2023-04-01T11:47:24;1.77;;;1.00;;
50102;SDS011;35993;52.604;10.078;2023-04-01T12:04:50;1.35;;;1.10;;
50102;SDS011;35993;52.604;10.078;2023-04-01T12:07:42;1.10;;;0.98;;
50102;SDS011;35993;52.604;10.078;2023-04-01T12:11:00;0.98;;;0.82;;
50102;SDS011;35993;52.604;10.078;2023-04-01T12:13:53;0.63;;;0.60;;
50102;SDS011;35993;52.604;10.078;2023-04-01T12:16:38;1.35;;;0.70;;
50102;SDS011;35993;52.604;10.078;2023-04-01T12:19:26;0.82;;;0.80;;
50102;SDS011;35993;52.604;10.078;2023-04-01T12:22:21;0.90;;;0.90;;
50102;SDS011;35993;52.604;10.078;2023-04-01T12:27:35;1.10;;;0.90;;
50102;SDS011;35993;52.604;10.078;2023-04-01T12:30:15;0.80;;;0.80;;
50102;SDS011;35993;52.604;10.078;2023-04-01T12:55:02;1.13;;;0.90;;
50102;SDS011;35993;52.604;10.078;2023-04-01T13:00:52;2.22;;;0.95;;
50102;SDS011;35993;52.604;10.078;2023-04-01T13:06:41;1.70;;;1.10;;
50102;SDS011;35993;52.604;10.078;2023-04-01T13:12:29;1.00;;;0.90;;
50102;SDS011;35993;52.604;10.078;2023-04-01T13:18:14;1.83;;;1.00;;
50102;SDS011;35993;52.604;10.078;2023-04-01T13:20:51;1.10;;;0.90;;
50102;SDS011;35993;52.604;10.078;2023-04-01T13:23:30;0.98;;;0.80;;
50102;SDS011;35993;52.604;10.078;2023-04-01T13:26:17;1.30;;;0.82;;
50102;SDS011;35993;52.604;10.078;2023-04-01T13:28:58;1.80;;;1.10;;
50102;SDS011;35993;52.604;10.078;2023-04-01T13:31:31;1.67;;;1.23;;
50102;SDS011;35993;52.604;10.078;2023-04-01T13:34:08;1.13;;;1.00;;
50102;SDS011;35993;52.604;10.078;2023-04-01T13:44:56;1.35;;;0.90;;
50102;SDS011;35993;52.604;10.078;2023-04-01T13:59:07;0.70;;;0.65;;
50102;SDS011;35993;52.604;10.078;2023-04-01T14:04:16;1.10;;;0.90;;
50102;SDS011;35993;52.604;10.078;2023-04-01T14:09:44;1.00;;;0.80;;
50102;SDS011;35993;52.604;10.078;2023-04-01T14:28:38;1.40;;;0.73;;
50102;SDS011;35993;52.604;10.078;2023-04-01T14:40:05;0.77;;;0.63;;
50102;SDS011;35993;52.604;10.078;2023-04-01T14:48:17;1.05;;;0.70;;
50102;SDS011;35993;52.604;10.078;2023-04-01T14:50:56;1.08;;;0.80;;
50102;SDS011;35993;52.604;10.078;2023-04-01T14:53:29;0.95;;;0.85;;
50102;SDS011;35993;52.604;10.078;2023-04-01T14:56:01;1.17;;;0.80;;
50102;SDS011;35993;52.604;10.078;2023-04-01T14:58:41;1.27;;;0.70;;
50102;SDS011;35993;52.604;10.078;2023-04-01T15:01:13;2.63;;;0.63;;
50102;SDS011;35993;52.604;10.078;2023-04-01T15:14:51;1.30;;;0.82;;
50102;SDS011;35993;52.604;10.078;2023-04-01T15:28:44;1.05;;;0.80;;
50102;SDS011;35993;52.604;10.078;2023-04-01T15:37:04;1.40;;;0.80;;
50102;SDS011;35993;52.604;10.078;2023-04-01T15:39:38;1.27;;;0.95;;
50102;SDS011;35993;52.604;10.078;2023-04-01T15:42:34;2.10;;;1.00;;
50102;SDS011;35993;52.604;10.078;2023-04-01T15:47:56;0.93;;;0.80;;
50102;SDS011;35993;52.604;10.078;2023-04-01T15:50:46;2.97;;;1.00;;
50102;SDS011;35993;52.604;10.078;2023-04-01T15:55:59;2.75;;;1.50;;
50102;SDS011;35993;52.604;10.078;2023-04-01T16:10:54;0.93;;;0.75;;
50102;SDS011;35993;52.604;10.078;2023-04-01T16:13:32;1.30;;;0.93;;
50102;SDS011;35993;52.604;10.078;2023-04-01T16:16:21;1.40;;;1.00;;
50102;SDS011;35993;52.604;10.078;2023-04-01T16:21:53;1.48;;;0.98;;
50102;SDS011;35993;52.604;10.078;2023-04-01T16:24:35;1.27;;;0.98;;
50102;SDS011;35993;52.604;10.078;2023-04-01T16:27:13;1.95;;;1.00;;
50102;SDS011;35993;52.604;10.078;2023-04-01T16:32:17;2.20;;;1.17;;
50102;SDS011;35993;52.604;10.078;2023-04-01T16:37:29;0.98;;;0.80;;
50102;SDS011;35993;52.604;10.078;2023-04-01T16:42:50;2.75;;;1.13;;
50102;SDS011;35993;52.604;10.078;2023-04-01T16:45:26;1.65;;;1.20;;
50102;SDS011;35993;52.604;10.078;2023-04-01T16:48:14;1.25;;;0.90;;
50102;SDS011;35993;52.604;10.078;2023-04-01T16:53:30;1.88;;;1.20;;
50102;SDS011;35993;52.604;10.078;2023-04-01T16:56:14;2.20;;;1.08;;
50102;SDS011;35993;52.604;10.078;2023-04-01T17:01:42;1.35;;;0.90;;
50102;SDS011;35993;52.604;10.078;2023-04-01T17:07:39;2.83;;;1.00;;
50102;SDS011;35993;52.604;10.078;2023-04-01T17:15:30;2.35;;;1.10;;
50102;SDS011;35993;52.604;10.078;2023-04-01T17:18:14;2.28;;;1.05;;
50102;SDS011;35993;52.604;10.078;2023-04-01T17:20:56;1.67;;;1.10;;
50102;SDS011;35993;52.604;10.078;2023-04-01T17:28:59;1.70;;;1.10;;
50102;SDS011;35993;52.604;10.078;2023-04-01T17:31:45;1.80;;;1.13;;
50102;SDS011;35993;52.604;10.078;2023-04-01T17:37:22;2.13;;;1.33;;
50102;SDS011;35993;52.604;10.078;2023-04-01T17:45:24;2.67;;;1.63;;
50102;SDS011;35993;52.604;10.078;2023-04-01T17:47:58;2.53;;;1.80;;
50102;SDS011;35993;52.604;10.078;2023-04-01T17:53:16;2.05;;;1.00;;
50102;SDS011;35993;52.604;10.078;2023-04-01T17:58:19;2.10;;;1.10;;
50102;SDS011;35993;52.604;10.078;2023-04-01T18:00:49;1.85;;;1.40;;
50102;SDS011;35993;52.604;10.078;2023-04-01T18:17:45;2.28;;;1.50;;
50102;SDS011;35993;52.604;10.078;2023-04-01T18:26:50;2.85;;;1.17;;
50102;SDS011;35993;52.604;10.078;2023-04-01T18:29:11;3.70;;;1.33;;
50102;SDS011;35993;52.604;10.078;2023-04-01T18:32:08;2.17;;;1.20;;
50102;SDS011;35993;52.604;10.078;2023-04-01T18:34:48;4.07;;;1.58;;
50102;SDS011;35993;52.604;10.078;2023-04-01T18:39:47;4.40;;;1.52;;
50102;SDS011;35993;52.604;10.078;2023-04-01T18:42:43;2.53;;;1.42;;
50102;SDS011;35993;52.604;10.078;2023-04-01T18:45:20;3.72;;;1.70;;
50102;SDS011;35993;52.604;10.078;2023-04-01T18:48:08;4.57;;;1.80;;
50102;SDS011;35993;52.604;10.078;2023-04-01T18:50:43;2.95;;;1.60;;
50102;SDS011;35993;52.604;10.078;2023-04-01T18:56:01;2.70;;;1.63;;
50102;SDS011;35993;52.604;10.078;2023-04-01T18:58:42;2.53;;;1.92;;
50102;SDS011;35993;52.604;10.078;2023-04-01T19:01:26;2.87;;;1.90;;
50102;SDS011;35993;52.604;10.078;2023-04-01T19:04:12;3.53;;;2.00;;
50102;SDS011;35993;52.604;10.078;2023-04-01T19:06:53;3.83;;;1.80;;
50102;SDS011;35993;52.604;10.078;2023-04-01T19:09:23;3.25;;;1.85;;
50102;SDS011;35993;52.604;10.078;2023-04-01T19:22:48;4.43;;;2.20;;
50102;SDS011;35993;52.604;10.078;2023-04-01T19:25:37;3.15;;;2.03;;
50102;SDS011;35993;52.604;10.078;2023-04-01T19:31:10;4.85;;;2.30;;
50102;SDS011;35993;52.604;10.078;2023-04-01T19:36:29;3.50;;;2.20;;
50102;SDS011;35993;52.604;10.078;2023-04-01T19:39:14;7.03;;;2.08;;
50102;SDS011;35993;52.604;10.078;2023-04-01T19:47:39;5.15;;;2.45;;
50102;SDS011;35993;52.604;10.078;2023-04-01T19:50:23;5.75;;;2.33;;
50102;SDS011;35993;52.604;10.078;2023-04-01T19:53:03;3.65;;;2.15;;
50102;SDS011;35993;52.604;10.078;2023-04-01T19:55:46;3.83;;;2.17;;
50102;SDS011;35993;52.604;10.078;2023-04-01T19:58:24;3.78;;;2.00;;
50102;SDS011;35993;52.604;10.078;2023-04-01T20:01:00;3.15;;;2.00;;
50102;SDS011;35993;52.604;10.078;2023-04-01T20:03:38;4.57;;;2.33;;
50102;SDS011;35993;52.604;10.078;2023-04-01T20:06:22;3.53;;;2.40;;
50102;SDS011;35993;52.604;10.078;2023-04-01T20:11:27;6.15;;;2.60;;
50102;SDS011;35993;52.604;10.078;2023-04-01T20:19:28;5.22;;;2.50;;
50102;SDS011;35993;52.604;10.078;2023-04-01T20:21:59;3.85;;;2.30;;
50102;SDS011;35993;52.604;10.078;2023-04-01T20:24:37;4.78;;;2.58;;
50102;SDS011;35993;52.604;10.078;2023-04-01T20:27:09;4.65;;;2.45;;
50102;SDS011;35993;52.604;10.078;2023-04-01T20:35:13;6.20;;;2.55;;
50102;SDS011;35993;52.604;10.078;2023-04-01T20:43:40;6.57;;;2.60;;
50102;SDS011;35993;52.604;10.078;2023-04-01T20:46:27;6.32;;;2.42;;
50102;SDS011;35993;52.604;10.078;2023-04-01T20:49:23;7.78;;;2.33;;
50102;SDS011;35993;52.604;10.078;2023-04-01T20:52:28;3.72;;;2.30;;
50102;SDS011;35993;52.604;10.078;2023-04-01T20:57:27;12.02;;;3.08;;
50102;SDS011;35993;52.604;10.078;2023-04-01T21:00:20;5.38;;;2.90;;
50102;SDS011;35993;52.604;10.078;2023-04-01T21:03:05;4.88;;;2.70;;
50102;SDS011;35993;52.604;10.078;2023-04-01T21:08:40;5.90;;;2.70;;
50102;SDS011;35993;52.604;10.078;2023-04-01T21:27:20;5.88;;;3.17;;
50102;SDS011;35993;52.604;10.078;2023-04-01T21:33:31;5.53;;;3.28;;
50102;SDS011;35993;52.604;10.078;2023-04-01T21:35:39;8.00;;;2.90;;
50102;SDS011;35993;52.604;10.078;2023-04-01T21:41:02;8.05;;;2.67;;
50102;SDS011;35993;52.604;10.078;2023-04-01T21:43:41;6.22;;;2.53;;
50102;SDS011;35993;52.604;10.078;2023-04-01T21:55:26;5.35;;;2.78;;
50102;SDS011;35993;52.604;10.078;2023-04-01T22:00:38;5.63;;;2.75;;
50102;SDS011;35993;52.604;10.078;2023-04-01T22:03:19;6.03;;;2.50;;
50102;SDS011;35993;52.604;10.078;2023-04-01T22:08:47;7.35;;;2.95;;
50102;SDS011;35993;52.604;10.078;2023-04-01T22:14:01;6.18;;;2.75;;
50102;SDS011;35993;52.604;10.078;2023-04-01T22:16:54;5.00;;;2.90;;
50102;SDS011;35993;52.604;10.078;2023-04-01T22:19:38;6.00;;;2.70;;
50102;SDS011;35993;52.604;10.078;2023-04-01T22:25:15;6.35;;;2.70;;
50102;SDS011;35993;52.604;10.078;2023-04-01T22:27:48;5.03;;;2.50;;
50102;SDS011;35993;52.604;10.078;2023-04-01T22:36:20;5.78;;;2.53;;
50102;SDS011;35993;52.604;10.078;2023-04-01T22:44:34;4.82;;;2.30;;
50102;SDS011;35993;52.604;10.078;2023-04-01T22:47:20;5.70;;;2.20;;
50102;SDS011;35993;52.604;10.078;2023-04-01T22:49:59;4.50;;;2.20;;
50102;SDS011;35993;52.604;10.078;2023-04-01T22:52:47;5.40;;;2.30;;
50102;SDS011;35993;52.604;10.078;2023-04-01T22:55:25;3.70;;;2.25;;
50102;SDS011;35993;52.604;10.078;2023-04-01T23:00:32;5.10;;;1.95;;
50102;SDS011;35993;52.604;10.078;2023-04-01T23:05:32;3.92;;;2.10;;
50102;SDS011;35993;52.604;10.078;2023-04-01T23:08:20;5.53;;;1.95;;
50102;SDS011;35993;52.604;10.078;2023-04-01T23:11:09;5.15;;;2.10;;
50102;SDS011;35993;52.604;10.078;2023-04-01T23:13:46;4.15;;;1.80;;
50102;SDS011;35993;52.604;10.078;2023-04-01T23:16:20;5.25;;;2.00;;
50102;SDS011;35993;52.604;10.078;2023-04-01T23:19:00;7.22;;;2.05;;
50102;SDS011;35993;52.604;10.078;2023-04-01T23:24:21;4.93;;;1.55;;
50102;SDS011;35993;52.604;10.078;2023-04-01T23:29:25;5.03;;;2.15;;
50102;SDS011;35993;52.604;10.078;2023-04-01T23:31:56;6.10;;;1.83;;
50102;SDS011;35993;52.604;10.078;2023-04-01T23:34:30;3.95;;;1.98;;
50102;SDS011;35993;52.604;10.078;2023-04-01T23:37:02;5.15;;;1.75;;
50102;SDS011;35993;52.604;10.078;2023-04-01T23:39:34;3.80;;;1.90;;
50102;SDS011;35993;52.604;10.078;2023-04-01T23:42:06;6.10;;;2.20;;
50102;SDS011;35993;52.604;10.078;2023-04-01T23:44:38;4.70;;;1.88;;
50102;SDS011;35993;52.604;10.078;2023-04-01T23:47:05;5.13;;;1.83;;
50102;SDS011;35993;52.604;10.078;2023-04-01T23:49:44;6.67;;;2.17;;
